Time;durP1;ratioP1;P1;durP2;ratioP2;P2;SDS_P1;SDS_P2;PMS_P1;PMS_P2;Temp;Humidity;BMP_temperature;BMP_pressure;BME280_temperature;BME280_humidity;BME280_pressure;Samples;Min_cycle;Max_cycle;Signal;HPM_P1;HPM_P2
2022/05/26 00:01:13;;;;;;;1999.90;999.90;;;;;;;20.15;48.14;95707.34;4989639;28;20142;-69
2022/05/26 00:03:41;;;;;;;1999.90;999.90;;;;;;;20.62;48.25;95774.03;4991132;28;20030;-72
2022/05/26 00:06:08;;;;;;;1999.90;999.90;;;;;;;20.82;47.94;95793.78;4990359;28;20018;-68
2022/05/26 00:08:36;;;;;;;1999.90;999.90;;;;;;;20.95;47.57;95795.25;4990133;28;20395;-68
2022/05/26 00:11:04;;;;;;;1999.90;999.90;;;;;;;21.10;47.34;95826.09;4989620;28;20054;-68
2022/05/26 00:13:29;;;;;;;1999.90;999.90;;;;;;;20.81;47.13;95780.63;4990417;28;20522;-68
2022/05/26 00:15:55;;;;;;;1999.90;999.90;;;;;;;20.39;47.13;95702.88;4988247;28;20030;-69
2022/05/26 00:18:20;;;;;;;1999.90;999.90;;;;;;;20.21;46.94;95684.31;4989940;28;20497;-69
2022/05/26 00:20:46;;;;;;;1999.90;999.90;;;;;;;20.41;46.86;95725.69;4990360;28;20112;-69
2022/05/26 00:23:11;;;;;;;1999.90;999.90;;;;;;;20.09;46.94;95684.44;4989420;28;20085;-70
2022/05/26 00:25:37;;;;;;;1999.90;999.90;;;;;;;20.79;47.08;95805.31;4990343;28;20122;-70
2022/05/26 00:28:03;;;;;;;1999.90;999.90;;;;;;;20.02;47.10;95702.44;4989878;28;20038;-69
2022/05/26 00:30:29;;;;;;;1999.90;999.90;;;;;;;19.94;47.01;95671.75;4989099;28;20530;-70
2022/05/26 00:32:54;;;;;;;1999.90;999.90;;;;;;;19.89;46.99;95685.53;4990406;28;20026;-70
2022/05/26 00:35:20;;;;;;;1999.90;999.90;;;;;;;19.74;47.11;95669.00;4990448;28;20022;-70
2022/05/26 00:37:46;;;;;;;1999.90;999.90;;;;;;;19.78;47.03;95696.06;4989365;28;20110;-70
2022/05/26 00:40:14;;;;;;;1999.90;999.90;;;;;;;19.97;47.11;95716.97;4988852;28;20049;-69
2022/05/26 00:42:40;;;;;;;1999.90;999.90;;;;;;;19.64;47.12;95671.44;4988898;28;20030;-69
2022/05/26 00:45:07;;;;;;;1999.90;999.90;;;;;;;19.67;47.16;95668.06;4989269;28;20496;-70
2022/05/26 00:47:40;;;;;;;1999.90;999.90;;;;;;;20.38;47.39;95791.25;4990316;28;20549;-70
2022/05/26 00:50:20;;;;;;;1999.90;999.90;;;;;;;19.88;47.25;95724.47;4989611;28;20059;-68
2022/05/26 00:52:54;;;;;;;1999.90;999.90;;;;;;;20.03;47.41;95761.47;4989098;28;20511;-69
2022/05/26 00:55:33;;;;;;;1999.90;999.90;;;;;;;19.93;47.72;95791.69;4988771;28;20101;-69
2022/05/26 00:58:09;;;;;;;1999.90;999.90;;;;;;;20.03;47.12;95758.00;4989486;28;20030;-69
2022/05/26 01:00:37;;;;;;;1999.90;999.90;;;;;;;19.50;47.00;95663.75;4989205;28;20274;-69
2022/05/26 01:03:22;;;;;;;1999.90;999.90;;;;;;;20.14;47.57;95821.16;4988850;28;20057;-70
2022/05/26 01:06:01;;;;;;;1999.90;999.90;;;;;;;19.45;47.22;95680.22;4993673;28;20097;-69
2022/05/26 01:08:53;;;;;;;1999.90;999.90;;;;;;;20.24;47.13;95796.31;4993227;28;20034;-69
2022/05/26 01:11:18;;;;;;;1999.90;999.90;;;;;;;19.10;48.13;95736.69;4967355;28;20546;-70
2022/05/26 01:13:48;;;;;;;1999.90;999.90;;;;;;;19.43;47.54;95693.25;4974130;28;20031;-69
2022/05/26 01:16:24;;;;;;;1999.90;999.90;;;;;;;19.45;47.19;95718.75;4990966;28;20029;-69
2022/05/26 01:18:56;;;;;;;1999.90;999.90;;;;;;;20.33;47.10;95828.56;4991719;28;20018;-69
2022/05/26 01:21:40;;;;;;;1999.90;999.90;;;;;;;19.90;47.02;95792.38;4993451;28;20547;-70
2022/05/26 01:24:34;;;;;;;1999.90;999.90;;;;;;;19.42;48.37;95827.34;4993348;28;20030;-68
2022/05/26 01:27:24;;;;;;;1999.90;999.90;;;;;;;18.50;48.45;95692.63;4956308;28;20106;-69
2022/05/26 01:30:23;;;;;;;1999.90;999.90;;;;;;;19.61;48.36;95832.16;4992158;28;20851;-70
2022/05/26 01:33:03;;;;;;;1999.90;999.90;;;;;;;19.99;47.54;95845.09;4993083;28;20083;-70
2022/05/26 01:35:44;;;;;;;1999.90;999.90;;;;;;;20.04;47.34;95846.75;4993199;28;20037;-70
2022/05/26 01:38:47;;;;;;;1999.90;999.90;;;;;;;19.38;48.70;95844.56;4992539;28;20027;-68
2022/05/26 01:41:18;;;;;;;1999.90;999.90;;;;;;;18.53;47.96;95667.66;4992973;28;20034;-69
2022/05/26 01:44:01;;;;;;;1999.90;999.90;;;;;;;19.01;48.26;95768.41;4992919;28;20464;-68
2022/05/26 01:46:42;;;;;;;1999.90;999.90;;;;;;;18.34;48.79;95706.78;4992035;28;20038;-68
2022/05/26 01:49:40;;;;;;;1999.90;999.90;;;;;;;19.28;48.89;95845.06;4992411;28;20057;-69
2022/05/26 01:52:30;;;;;;;1999.90;999.90;;;;;;;18.52;49.08;95758.47;4992655;28;20057;-68
2022/05/26 01:55:09;;;;;;;1999.90;999.90;;;;;;;19.26;48.98;95844.63;4992699;28;20495;-69
2022/05/26 01:57:54;;;;;;;1999.90;999.90;;;;;;;18.83;49.65;95846.03;4992282;28;20035;-68
2022/05/26 02:00:20;;;;;;;1999.90;999.90;;;;;;;19.22;48.04;95810.22;4977278;28;20647;-69
2022/05/26 02:02:58;;;;;;;1999.90;999.90;;;;;;;18.82;47.66;95723.19;4992658;28;20434;-69
2022/05/26 02:05:28;;;;;;;1999.90;999.90;;;;;;;18.65;47.66;95689.19;4991579;28;20026;-69
2022/05/26 02:08:01;;;;;;;1999.90;999.90;;;;;;;18.91;47.35;95713.06;4991907;28;20125;-68
2022/05/26 02:10:51;;;;;;;1999.90;999.90;;;;;;;18.49;47.31;95662.19;4992307;28;20031;-69
2022/05/26 02:13:28;;;;;;;1999.90;999.90;;;;;;;19.75;47.36;95866.81;4991963;28;20074;-69
2022/05/26 02:15:58;;;;;;;1999.90;999.90;;;;;;;18.99;47.63;95755.28;4991308;28;20034;-69
2022/05/26 02:18:37;;;;;;;1999.90;999.90;;;;;;;18.65;47.45;95692.69;4992048;28;20024;-69
2022/05/26 02:21:30;;;;;;;1999.90;999.90;;;;;;;19.22;47.38;95769.00;4992374;28;20023;-69
2022/05/26 02:24:12;;;;;;;1999.90;999.90;;;;;;;19.67;47.35;95838.06;4992133;28;20041;-71
2022/05/26 02:26:38;;;;;;;1999.90;999.90;;;;;;;18.38;47.26;95659.19;4992164;28;20061;-69
2022/05/26 02:31:49;;;;;;;1999.90;999.90;;;;;;;19.26;47.52;95802.25;4992288;28;20165;-69
2022/05/26 02:34:18;;;;;;;1999.90;999.90;;;;;;;18.69;47.36;95725.94;4991913;28;20100;-68
2022/05/26 02:36:46;;;;;;;1999.90;999.90;;;;;;;18.44;47.42;95702.84;4992229;28;20018;-69
2022/05/26 02:39:12;;;;;;;1999.90;999.90;;;;;;;18.17;47.30;95675.53;4991659;28;20057;-69
2022/05/26 02:41:39;;;;;;;1999.90;999.90;;;;;;;18.67;47.14;95741.63;4991776;28;20455;-68
2022/05/26 02:44:06;;;;;;;1999.90;999.90;;;;;;;19.02;47.26;95813.09;4991208;28;20038;-69
2022/05/26 02:46:42;;;;;;;1999.90;999.90;;;;;;;18.52;47.14;95725.38;5007357;28;20058;-68
2022/05/26 02:49:20;;;;;;;1999.90;999.90;;;;;;;19.36;47.18;95841.44;4991363;28;20037;-69
2022/05/26 02:52:02;;;;;;;1999.90;999.90;;;;;;;19.32;47.26;95852.13;4991660;28;20030;-69
2022/05/26 02:54:53;;;;;;;1999.90;999.90;;;;;;;19.30;47.18;95840.13;4991820;28;20075;-69
2022/05/26 02:57:18;;;;;;;1999.90;999.90;;;;;;;19.26;47.27;95836.53;4991377;28;20061;-68
2022/05/26 02:59:56;;;;;;;1999.90;999.90;;;;;;;19.23;47.38;95849.56;4989758;28;20223;-68
2022/05/26 03:02:36;;;;;;;1999.90;999.90;;;;;;;19.23;47.42;95851.47;4991588;28;20030;-69
2022/05/26 03:05:19;;;;;;;1999.90;999.90;;;;;;;17.95;47.44;95673.28;4991674;28;20049;-69
2022/05/26 03:07:48;;;;;;;1999.90;999.90;;;;;;;18.26;47.62;95718.47;4991637;28;20022;-69
2022/05/26 03:10:15;;;;;;;1999.90;999.90;;;;;;;18.01;47.59;95711.53;4991008;28;21345;-68
2022/05/26 03:12:41;;;;;;;1999.90;999.90;;;;;;;18.09;47.60;95719.50;4990720;28;20023;-70
2022/05/26 03:15:08;;;;;;;1999.90;999.90;;;;;;;18.51;47.53;95753.44;4991329;28;20037;-69
2022/05/26 03:17:34;;;;;;;1999.90;999.90;;;;;;;18.34;47.67;95730.25;4991362;28;20030;-69
2022/05/26 03:20:00;;;;;;;1999.90;999.90;;;;;;;18.24;47.40;95714.53;4990557;28;20105;-69
2022/05/26 03:22:26;;;;;;;1999.90;999.90;;;;;;;18.56;47.54;95754.00;4991288;28;20109;-66
2022/05/26 03:24:51;;;;;;;1999.90;999.90;;;;;;;18.61;47.04;95720.66;4991220;28;20018;-68
2022/05/26 03:27:17;;;;;;;1999.90;999.90;;;;;;;19.22;46.68;95826.41;4990211;28;20110;-68
2022/05/26 03:29:43;;;;;;;1999.90;999.90;;;;;;;19.45;46.46;95860.97;4990551;28;20062;-68
2022/05/26 03:32:08;;;;;;;1999.90;999.90;;;;;;;18.52;46.57;95730.75;4990799;28;20103;-68
2022/05/26 03:42:48;;;;;;;1999.90;999.90;;;;;;;18.12;46.52;95697.28;4989640;28;20502;-68
2022/05/26 03:45:16;;;;;;;1999.90;999.90;;;;;;;18.18;46.70;95708.63;4990807;28;20084;-69
2022/05/26 03:47:41;;;;;;;1999.90;999.90;;;;;;;19.07;46.64;95835.22;4990846;28;20072;-68
2022/05/26 03:50:08;;;;;;;1999.90;999.90;;;;;;;18.30;46.50;95705.09;4990015;28;20049;-67
2022/05/26 03:52:33;;;;;;;1999.90;999.90;;;;;;;18.48;46.66;95746.03;4989333;28;20030;-68
2022/05/26 03:54:58;;;;;;;1999.90;999.90;;;;;;;18.45;46.38;95715.19;4990671;28;20431;-68
2022/05/26 03:57:26;;;;;;;1999.90;999.90;;;;;;;18.96;46.30;95772.13;4990037;28;20069;-70
2022/05/26 03:59:52;;;;;;;1999.90;999.90;;;;;;;19.29;45.87;95812.34;4990249;28;20117;-68
2022/05/26 04:02:17;;;;;;;1999.90;999.90;;;;;;;19.09;45.45;95719.72;4990453;28;20105;-68
2022/05/26 04:04:43;;;;;;;1999.90;999.90;;;;;;;19.63;44.91;95756.22;5005785;28;20424;-68
2022/05/26 04:07:08;;;;;;;1999.90;999.90;;;;;;;20.16;44.33;95802.66;4989174;28;20034;-69
2022/05/26 04:09:33;;;;;;;1999.90;999.90;;;;;;;20.55;43.79;95816.34;4988976;28;20470;-69
2022/05/26 04:11:59;;;;;;;1999.90;999.90;;;;;;;20.93;43.28;95850.81;4989332;28;20034;-68
2022/05/26 04:14:24;;;;;;;1999.90;999.90;;;;;;;20.86;42.56;95805.47;4989922;28;20084;-69
2022/05/26 04:16:50;;;;;;;1999.90;999.90;;;;;;;21.05;42.38;95769.56;4990618;28;20476;-69
2022/05/26 04:19:15;;;;;;;1999.90;999.90;;;;;;;21.21;42.15;95824.38;4990195;28;20027;-69
2022/05/26 04:22:15;;;;;;;1999.90;999.90;;;;;;;21.13;42.20;95830.75;4990400;28;20040;-69
2022/05/26 04:24:26;;;;;;;1999.90;999.90;;;;;;;21.12;42.26;95804.84;4990467;28;20066;-69
2022/05/26 04:26:51;;;;;;;1999.90;999.90;;;;;;;21.32;42.28;95838.16;4989494;28;20034;-70
2022/05/26 04:29:17;;;;;;;1999.90;999.90;;;;;;;21.12;41.99;95821.09;4988752;28;20443;-69
2022/05/26 04:31:42;;;;;;;1999.90;999.90;;;;;;;21.58;42.12;95861.09;4989431;28;20034;-69
2022/05/26 04:34:08;;;;;;;1999.90;999.90;;;;;;;21.57;42.05;95803.47;4989905;28;20032;-69
2022/05/26 04:36:33;;;;;;;1999.90;999.90;;;;;;;22.32;41.51;95845.44;5005438;28;20092;-69
2022/05/26 04:38:59;;;;;;;1999.90;999.90;;;;;;;23.38;40.63;95915.25;4991083;28;20037;-69
2022/05/26 04:41:24;;;;;;;1999.90;999.90;;;;;;;23.23;39.50;95825.47;4993427;28;20026;-69
2022/05/26 04:43:49;;;;;;;1999.90;999.90;;;;;;;23.45;38.61;95787.75;5009195;28;20458;-69
2022/05/26 04:46:17;;;;;;;1999.90;999.90;;;;;;;23.65;38.04;95842.66;4993922;28;20077;-70
2022/05/26 04:48:43;;;;;;;1999.90;999.90;;;;;;;23.75;38.13;95861.03;4993716;28;20041;-69
2022/05/26 04:51:09;;;;;;;1999.90;999.90;;;;;;;23.60;38.45;95841.06;5008844;28;20022;-69
2022/05/26 04:53:34;;;;;;;1999.90;999.90;;;;;;;23.38;38.61;95822.94;4994051;28;20033;-70
2022/05/26 04:56:00;;;;;;;1999.90;999.90;;;;;;;23.24;38.69;95793.72;4992930;28;20643;-69
2022/05/26 04:58:25;;;;;;;1999.90;999.90;;;;;;;23.42;38.88;95818.34;5008368;28;20424;-70
2022/05/26 05:00:51;;;;;;;1999.90;999.90;;;;;;;23.79;38.86;95883.59;4992836;28;20109;-69
2022/05/26 05:03:17;;;;;;;1999.90;999.90;;;;;;;23.67;38.86;95867.53;4992901;28;20104;-69
2022/05/26 05:05:42;;;;;;;1999.90;999.90;;;;;;;24.23;38.41;95957.06;4993789;28;20022;-69
2022/05/26 05:08:08;;;;;;;1999.90;999.90;;;;;;;23.66;38.79;95839.59;4993049;28;20053;-69
2022/05/26 05:10:33;;;;;;;1999.90;999.90;;;;;;;23.43;38.79;95806.31;4992748;28;20467;-70
2022/05/26 05:12:59;;;;;;;1999.90;999.90;;;;;;;23.36;38.74;95809.75;4993499;28;20026;-69
2022/05/26 05:15:53;;;;;;;1999.90;999.90;;;;;;;23.92;39.07;95898.50;4993642;28;20026;-69
2022/05/26 05:18:18;;;;;;;1999.90;999.90;;;;;;;24.05;38.73;95888.13;4990412;28;20046;-69
2022/05/26 05:20:45;;;;;;;1999.90;999.90;;;;;;;24.77;38.51;95931.22;4993517;28;20098;-69
2022/05/26 05:23:12;;;;;;;1999.90;999.90;;;;;;;24.66;37.39;95862.31;4993407;28;20057;-69
2022/05/26 05:25:44;;;;;;;1999.90;999.90;;;;;;;24.72;37.47;95849.94;4992553;28;20027;-69
2022/05/26 05:28:26;;;;;;;1999.90;999.90;;;;;;;24.73;37.41;95848.78;4992622;28;20380;-69
2022/05/26 05:31:11;;;;;;;1999.90;999.90;;;;;;;25.08;36.96;95891.00;4993400;28;20086;-70
2022/05/26 05:33:48;;;;;;;1999.90;999.90;;;;;;;24.81;36.73;95844.91;4991150;28;20030;-67
2022/05/26 05:36:18;;;;;;;1999.90;999.90;;;;;;;25.07;36.42;95862.22;4991718;28;20061;-69
2022/05/26 05:38:43;;;;;;;1999.90;999.90;;;;;;;24.86;36.16;95819.28;5008881;28;20026;-69
2022/05/26 05:41:10;;;;;;;1999.90;999.90;;;;;;;25.08;35.96;95848.25;4988233;28;20553;-69
2022/05/26 05:43:37;;;;;;;1999.90;999.90;;;;;;;25.33;35.82;95848.34;4991868;28;20026;-69
2022/05/26 05:46:03;;;;;;;1999.90;999.90;;;;;;;25.37;35.60;95832.03;4991740;28;20058;-67
2022/05/26 05:48:28;;;;;;;1999.90;999.90;;;;;;;25.88;35.10;95888.31;4992588;28;20068;-67
2022/05/26 05:50:54;;;;;;;1999.90;999.90;;;;;;;25.71;34.89;95845.41;4985664;28;20097;-69
2022/05/26 05:53:20;;;;;;;1999.90;999.90;;;;;;;26.02;34.30;95860.31;5005213;28;20478;-68
2022/05/26 05:55:47;;;;;;;1999.90;999.90;;;;;;;26.24;33.93;95888.41;5005805;28;20431;-68
2022/05/26 05:58:13;;;;;;;1999.90;999.90;;;;;;;26.35;33.58;95881.78;4992807;28;20491;-68
2022/05/26 06:00:40;;;;;;;1999.90;999.90;;;;;;;26.36;33.30;95864.28;4992875;28;20022;-68
2022/05/26 06:03:06;;;;;;;1999.90;999.90;;;;;;;27.30;32.66;95994.19;4991139;28;20547;-68
2022/05/26 06:05:32;;;;;;;1999.90;999.90;;;;;;;27.47;32.56;96011.72;4988512;28;20036;-68
2022/05/26 06:07:58;;;;;;;1999.90;999.90;;;;;;;26.42;32.70;95894.69;4987934;28;20038;-68
2022/05/26 06:10:24;;;;;;;1999.90;999.90;;;;;;;26.97;32.20;96000.78;4991085;28;20034;-69
2022/05/26 06:12:49;;;;;;;1999.90;999.90;;;;;;;26.03;33.54;95965.47;4991495;28;20113;-69
2022/05/26 06:15:15;;;;;;;1999.90;999.90;;;;;;;25.94;33.78;95884.03;4992863;28;20026;-69
2022/05/26 06:17:40;;;;;;;1999.90;999.90;;;;;;;27.16;33.25;96013.31;4992999;28;20027;-68
2022/05/26 06:20:07;;;;;;;1999.90;999.90;;;;;;;26.88;32.70;95965.69;4991416;28;20034;-68
2022/05/26 06:22:35;;;;;;;1999.90;999.90;;;;;;;27.42;32.52;95993.75;4982549;28;20659;-71
2022/05/26 06:25:02;;;;;;;1999.90;999.90;;;;;;;27.60;32.45;95976.56;4985917;28;20022;-69
2022/05/26 06:30:15;;;;;;;1999.90;999.90;;;;;;;27.85;31.32;95977.31;4987882;28;20494;-70
2022/05/26 06:38:15;;;;;;;1999.90;999.90;;;;;;;28.21;30.78;96008.03;4990033;28;20403;-68
2022/05/26 06:40:40;;;;;;;1999.90;999.90;;;;;;;28.28;31.34;96029.13;4990618;28;20061;-68
2022/05/26 06:43:07;;;;;;;1999.90;999.90;;;;;;;27.78;31.12;95988.25;4985285;28;20065;-70
2022/05/26 06:45:34;;;;;;;1999.90;999.90;;;;;;;27.80;31.06;96021.47;4988045;28;20480;-70
2022/05/26 06:48:01;;;;;;;1999.90;999.90;;;;;;;27.04;31.92;95978.94;4989583;28;20034;-70
2022/05/26 06:50:26;;;;;;;1999.90;999.90;;;;;;;26.19;33.82;96034.06;4991057;28;20057;-69
2022/05/26 06:52:52;;;;;;;1999.90;999.90;;;;;;;25.12;34.75;95987.88;4986089;28;20030;-70
2022/05/26 06:55:17;;;;;;;1999.90;999.90;;;;;;;23.77;37.28;95989.91;4990039;28;20042;-69
2022/05/26 06:57:43;;;;;;;1999.90;999.90;;;;;;;24.22;37.05;96009.88;4990388;28;20491;-68
2022/05/26 07:00:10;;;;;;;1999.90;999.90;;;;;;;24.19;37.31;96056.03;4989470;28;20048;-68
2022/05/26 07:02:35;;;;;;;1999.90;999.90;;;;;;;24.70;36.38;95999.13;4988966;28;20102;-68
2022/05/26 07:05:01;;;;;;;1999.90;999.90;;;;;;;25.42;36.15;96017.66;4987105;28;20118;-71
2022/05/26 07:07:27;;;;;;;1999.90;999.90;;;;;;;25.75;35.22;96028.81;4989408;28;20037;-68
2022/05/26 07:09:56;;;;;;;1999.90;999.90;;;;;;;25.93;34.90;96037.84;4987858;28;20026;-68
2022/05/26 07:12:22;;;;;;;1999.90;999.90;;;;;;;24.42;34.69;95936.31;4986287;28;20117;-66
2022/05/26 07:14:48;;;;;;;1999.90;999.90;;;;;;;25.65;34.81;96020.16;4988112;28;20391;-68
2022/05/26 07:17:13;;;;;;;1999.90;999.90;;;;;;;26.32;34.20;96051.69;4985717;28;20034;-70
2022/05/26 07:19:39;;;;;;;1999.90;999.90;;;;;;;26.23;33.66;95985.78;4986924;28;20122;-67
2022/05/26 07:22:04;;;;;;;1999.90;999.90;;;;;;;26.35;32.26;96048.16;4986163;28;21749;-70
2022/05/26 07:24:30;;;;;;;1999.90;999.90;;;;;;;24.17;33.18;95961.28;4988355;28;20022;-67
2022/05/26 07:26:56;;;;;;;1999.90;999.90;;;;;;;25.74;32.45;95998.00;4989601;28;20089;-68
2022/05/26 07:29:22;;;;;;;1999.90;999.90;;;;;;;23.74;35.84;96039.53;4985410;28;20045;-68
2022/05/26 07:31:48;;;;;;;1999.90;999.90;;;;;;;22.37;39.22;96059.28;4990009;28;20053;-65
2022/05/26 07:34:13;;;;;;;1999.90;999.90;;;;;;;21.77;38.07;96039.81;4989216;28;20534;-66
2022/05/26 07:42:15;;;;;;;1999.90;999.90;;;;;;;22.51;37.25;96013.44;4990686;28;20050;-70
2022/05/26 07:44:46;;;;;;;1999.90;999.90;;;;;;;20.95;37.66;95986.47;4988115;28;20418;-70
2022/05/26 07:47:12;;;;;;;1999.90;999.90;;;;;;;21.82;36.24;96009.75;4986690;28;20030;-70
2022/05/26 07:49:43;;;;;;;1999.90;999.90;;;;;;;22.04;36.86;96057.78;4989614;28;20112;-68
2022/05/26 07:52:10;;;;;;;1999.90;999.90;;;;;;;22.68;36.57;96041.25;4983064;28;20050;-70
2022/05/26 07:54:36;;;;;;;1999.90;999.90;;;;;;;22.51;37.79;96045.97;4979412;28;20088;-68
2022/05/26 07:57:03;;;;;;;1999.90;999.90;;;;;;;22.13;37.91;96029.75;4990016;28;20034;-69
2022/05/26 07:59:29;;;;;;;1999.90;999.90;;;;;;;21.29;37.95;95918.09;4985682;28;20030;-71
2022/05/26 08:01:54;;;;;;;1999.90;999.90;;;;;;;22.79;37.18;96026.75;4987265;28;20035;-68
2022/05/26 08:04:20;;;;;;;1999.90;999.90;;;;;;;22.67;37.34;96005.19;4987926;28;20037;-69
2022/05/26 08:06:47;;;;;;;1999.90;999.90;;;;;;;21.63;39.41;96063.84;4989906;28;20109;-68
2022/05/26 08:09:20;;;;;;;1999.90;999.90;;;;;;;21.61;39.75;96026.31;4986837;28;20036;-68
2022/05/26 08:11:46;;;;;;;1999.90;999.90;;;;;;;22.11;38.46;96008.44;4988765;28;20026;-67
2022/05/26 08:14:12;;;;;;;1999.90;999.90;;;;;;;22.40;36.70;95914.88;4989827;28;20026;-71
2022/05/26 08:16:38;;;;;;;1999.90;999.90;;;;;;;22.95;36.31;95971.63;4989079;28;20034;-70
2022/05/26 08:19:04;;;;;;;1999.90;999.90;;;;;;;22.18;37.06;95978.75;4990054;28;20030;-70
2022/05/26 08:21:31;;;;;;;1999.90;999.90;;;;;;;23.53;36.22;96045.41;4985223;28;20476;-66
2022/05/26 08:23:57;;;;;;;1999.90;999.90;;;;;;;22.21;37.83;96032.22;4987764;28;20041;-70
2022/05/26 08:26:22;;;;;;;1999.90;999.90;;;;;;;23.28;35.16;96007.00;4976361;28;20038;-70
2022/05/26 08:28:49;;;;;;;1999.90;999.90;;;;;;;23.21;35.93;96038.72;4988853;28;20030;-69
2022/05/26 08:31:15;;;;;;;1999.90;999.90;;;;;;;24.20;34.79;96041.28;4989072;28;20046;-70
2022/05/26 08:33:41;;;;;;;1999.90;999.90;;;;;;;23.27;35.83;96040.75;4988861;28;20077;-70
2022/05/26 08:36:13;;;;;;;1999.90;999.90;;;;;;;22.60;37.09;96037.63;4986157;28;20049;-69
2022/05/26 08:38:39;;;;;;;1999.90;999.90;;;;;;;23.33;36.15;96046.66;4994197;28;20038;-71
2022/05/26 08:41:05;;;;;;;1999.90;999.90;;;;;;;24.41;34.62;96033.41;4983836;28;20022;-70
2022/05/26 08:43:41;;;;;;;1999.90;999.90;;;;;;;25.20;33.94;96047.84;5002397;28;20033;-70
2022/05/26 08:46:09;;;;;;;1999.90;999.90;;;;;;;25.97;33.09;96033.22;4988171;28;20026;-70
2022/05/26 08:48:53;;;;;;;1999.90;999.90;;;;;;;26.33;32.13;96047.00;4983379;28;20026;-68
2022/05/26 08:51:39;;;;;;;1999.90;999.90;;;;;;;25.63;31.73;96030.63;4983667;28;20035;-68
2022/05/26 08:54:07;;;;;;;1999.90;999.90;;;;;;;25.66;32.57;96042.72;4990098;28;20419;-68
2022/05/26 08:56:33;;;;;;;1999.90;999.90;;;;;;;26.84;30.27;96033.13;4993445;28;20026;-67
2022/05/26 08:59:08;;;;;;;1999.90;999.90;;;;;;;25.24;32.34;96041.25;4986415;28;20022;-68
2022/05/26 09:01:34;;;;;;;1999.90;999.90;;;;;;;25.20;33.03;96039.66;4985595;28;20542;-69
2022/05/26 09:04:00;;;;;;;1999.90;999.90;;;;;;;25.76;31.58;96044.78;4985280;28;20031;-68
2022/05/26 09:06:27;;;;;;;1999.90;999.90;;;;;;;25.12;32.07;96045.03;4984199;28;20452;-68
2022/05/26 09:14:26;;;;;;;1999.90;999.90;;;;;;;25.99;32.38;96054.63;4983158;28;20022;-68
2022/05/26 09:17:01;;;;;;;1999.90;999.90;;;;;;;26.34;30.89;96029.47;4983023;28;20161;-69
2022/05/26 09:19:49;;;;;;;1999.90;999.90;;;;;;;26.48;30.00;96050.59;4985199;28;20042;-69
2022/05/26 09:22:45;;;;;;;1999.90;999.90;;;;;;;26.78;29.32;96034.69;4985661;28;20027;-68
2022/05/26 09:25:17;;;;;;;1999.90;999.90;;;;;;;24.70;32.95;96064.44;4988911;28;20034;-68
2022/05/26 09:27:51;;;;;;;1999.90;999.90;;;;;;;25.65;31.42;96052.84;4990660;28;20030;-70
2022/05/26 09:30:25;;;;;;;1999.90;999.90;;;;;;;25.39;31.47;96064.72;4990743;28;20044;-70
2022/05/26 09:32:52;;;;;;;1999.90;999.90;;;;;;;23.69;33.50;96052.66;4998562;28;20097;-71
2022/05/26 09:35:23;;;;;;;1999.90;999.90;;;;;;;24.74;32.93;96062.53;4980138;28;20034;-70
2022/05/26 09:37:52;;;;;;;1999.90;999.90;;;;;;;26.29;31.03;96060.63;4996371;28;20062;-70
2022/05/26 09:40:41;;;;;;;1999.90;999.90;;;;;;;25.10;32.80;96069.13;4989325;28;20035;-71
2022/05/26 09:43:15;;;;;;;1999.90;999.90;;;;;;;24.90;32.82;96068.53;4982728;28;20046;-70
2022/05/26 09:45:50;;;;;;;1999.90;999.90;;;;;;;25.37;31.83;96042.50;4988464;28;20122;-70
2022/05/26 09:48:26;;;;;;;1999.90;999.90;;;;;;;25.15;31.72;96068.78;4990795;28;20042;-71
2022/05/26 09:51:03;;;;;;;1999.90;999.90;;;;;;;25.14;31.75;96041.97;4990438;28;20081;-70
2022/05/26 09:53:38;;;;;;;1999.90;999.90;;;;;;;24.80;32.60;96066.47;4991197;28;20475;-69
2022/05/26 09:56:05;;;;;;;1999.90;999.90;;;;;;;24.69;32.58;96054.72;4972293;28;20110;-71
2022/05/26 09:58:34;;;;;;;1999.90;999.90;;;;;;;26.64;29.81;96072.84;4981143;28;20468;-71
2022/05/26 10:01:24;;;;;;;1999.90;999.90;;;;;;;27.75;28.18;96068.34;4989948;28;20388;-70
2022/05/26 10:04:04;;;;;;;1999.90;999.90;;;;;;;29.41;25.98;96065.25;4992760;28;20033;-70
2022/05/26 10:06:35;;;;;;;1999.90;999.90;;;;;;;29.08;26.35;96049.47;4990487;28;20118;-72
2022/05/26 10:09:24;;;;;;;1999.90;999.90;;;;;;;29.57;24.94;96069.47;5005289;28;20026;-70
2022/05/26 10:12:08;;;;;;;1999.90;999.90;;;;;;;26.85;27.38;96072.13;4992705;28;20057;-70
2022/05/26 10:14:49;;;;;;;1999.90;999.90;;;;;;;29.03;26.58;96060.84;4990842;28;20388;-70
2022/05/26 10:17:42;;;;;;;1999.90;999.90;;;;;;;28.73;25.61;96068.41;4990789;28;20045;-71
2022/05/26 10:20:17;;;;;;;1999.90;999.90;;;;;;;25.27;30.91;96081.34;4979921;28;20121;-71
2022/05/26 10:23:19;;;;;;;1999.90;999.90;;;;;;;25.60;30.94;96076.94;4986077;28;20030;-69
2022/05/26 10:26:07;;;;;;;1999.90;999.90;;;;;;;26.02;29.99;96075.69;5005491;28;20055;-70
2022/05/26 10:29:06;;;;;;;1999.90;999.90;;;;;;;24.79;31.92;96075.03;4998652;28;20046;-70
2022/05/26 10:31:37;;;;;;;1999.90;999.90;;;;;;;25.34;31.00;96067.81;4988978;28;20055;-68
2022/05/26 10:34:24;;;;;;;1999.90;999.90;;;;;;;26.09;30.10;96071.03;4986400;28;20026;-69
2022/05/26 10:37:08;;;;;;;1999.90;999.90;;;;;;;26.95;29.67;96066.69;4988825;28;20042;-69
2022/05/26 10:39:33;;;;;;;1999.90;999.90;;;;;;;27.70;29.23;96066.78;4990914;28;20037;-69
2022/05/26 10:42:12;;;;;;;1999.90;999.90;;;;;;;25.24;30.58;96049.44;4991271;28;20395;-69
2022/05/26 10:44:56;;;;;;;1999.90;999.90;;;;;;;25.02;31.82;96062.03;4992131;28;20483;-69
2022/05/26 10:47:36;;;;;;;1999.90;999.90;;;;;;;24.12;33.12;96065.69;4988727;28;20042;-69
2022/05/26 10:50:29;;;;;;;1999.90;999.90;;;;;;;25.20;31.85;96056.78;4990787;28;20030;-68
2022/05/26 10:53:18;;;;;;;1999.90;999.90;;;;;;;24.35;33.22;96046.56;4972456;28;20039;-70
2022/05/26 10:56:03;;;;;;;1999.90;999.90;;;;;;;26.29;29.89;96059.84;4982689;28;20562;-71
2022/05/26 10:58:42;;;;;;;1999.90;999.90;;;;;;;23.70;33.66;96082.19;4991251;28;20484;-70
2022/05/26 11:01:37;;;;;;;1999.90;999.90;;;;;;;25.13;32.37;96045.81;4987409;28;20055;-69
2022/05/26 11:04:23;;;;;;;1999.90;999.90;;;;;;;24.56;32.66;96048.72;5005965;28;20069;-69
2022/05/26 11:06:51;;;;;;;1999.90;999.90;;;;;;;25.34;31.39;96047.97;4990940;28;20515;-70
2022/05/26 11:09:32;;;;;;;1999.90;999.90;;;;;;;26.41;30.10;96057.56;4990385;28;20034;-70
2022/05/26 11:12:00;;;;;;;1999.90;999.90;;;;;;;25.55;31.60;96041.88;4988206;28;20487;-67
2022/05/26 11:17:44;;;;;;;1999.90;999.90;;;;;;;24.93;31.67;96011.78;4984577;28;20053;-69
2022/05/26 11:20:15;;;;;;;1999.90;999.90;;;;;;;24.20;32.21;96016.81;4988951;28;20447;-70
2022/05/26 11:22:45;;;;;;;1999.90;999.90;;;;;;;25.29;31.86;96051.03;4989896;28;20030;-69
2022/05/26 11:25:15;;;;;;;1999.90;999.90;;;;;;;26.30;29.16;96028.66;5000284;28;20048;-69
2022/05/26 11:28:12;;;;;;;1999.90;999.90;;;;;;;24.19;32.37;95997.00;4991128;28;20026;-69
2022/05/26 11:36:37;;;;;;;1999.90;999.90;;;;;;;23.90;32.83;96052.16;4991235;28;20045;-68
2022/05/26 11:39:08;;;;;;;1999.90;999.90;;;;;;;26.53;29.44;96014.75;4989297;28;20037;-69
2022/05/26 11:41:56;;;;;;;1999.90;999.90;;;;;;;27.29;27.94;96030.88;4987619;28;20407;-69
2022/05/26 11:44:31;;;;;;;1999.90;999.90;;;;;;;26.39;29.87;96043.50;4988938;28;20022;-68
2022/05/26 11:47:21;;;;;;;1999.90;999.90;;;;;;;24.99;31.55;96040.25;4989465;28;20042;-69
2022/05/26 11:49:49;;;;;;;1999.90;999.90;;;;;;;26.88;29.33;96033.94;4985749;28;20391;-68
2022/05/26 11:52:24;;;;;;;1999.90;999.90;;;;;;;27.84;27.18;96032.38;4988611;28;20030;-69
2022/05/26 11:54:52;;;;;;;1999.90;999.90;;;;;;;27.48;27.99;96029.66;4990428;28;20026;-69